Seznam meteostanic stanic Slunecno.cz
Reklama

Seznam meteostanic a jejich METAR

Vyhledat místa podle abecedy:
A B C D E F G H I J K L M N O P Q R S T U V W X Y Z

Filtrovat:

ID stanice:
a/nebo
Název místa (fulltext):
 
Místo (ID)Naposledy načteno 
Brno - Tuřany (Brno/Tu) 16.07.2019 00:00 UTC Zobrazit data
Místo: Brno - Tuřany
Teplota: 14 °C (pocitová: 12.1 °C)
Vítr: 2 m/s z(e) 350°
Počasí: skorojasno
Dohlednost: 40 km
Zákl. oblačnosti: 1/8 7500 m
Vlhkost: 88%
Červená - Opava (Cervena/uL) 16.07.2019 00:00 UTC Zobrazit data
Místo: Červená - Opava
Teplota: 13 °C (pocitová: 10 °C)
Vítr: 3 m/s z(e) 10°
Počasí: skoro zataženo
Dohlednost: 25 km
Zákl. oblačnosti: 6/8 1110 m
Vlhkost: 77%
České Budějovice (C.Budej/po) 16.07.2019 00:00 UTC Zobrazit data
Místo: České Budějovice
Teplota: 12 °C (pocitová: 10.4 °C)
Vítr: 1 m/s z(e) 160°
Počasí:
Dohlednost: 24 km
Zákl. oblačnosti: N/A
Vlhkost: 94%
Cheb (Cheb) 16.07.2019 00:00 UTC Zobrazit data
Místo: Cheb
Teplota: 10 °C (pocitová: 8 °C)
Vítr: 1 m/s z(e) 0°
Počasí: oblačno
Dohlednost: 24 km
Zákl. oblačnosti: 3/8 9300 m
Vlhkost: 94%
Chotusice - Čáslav (Caslav) 16.07.2019 00:00 UTC Zobrazit data
Místo: Chotusice - Čáslav
Teplota: 12 °C (pocitová: 9.5 °C)
Vítr: 2 m/s z(e) 230°
Počasí: slunečno
Dohlednost: 10 km
Zákl. oblačnosti: N/A
Vlhkost: 88%
Churáňov (Churanov) 16.07.2019 00:00 UTC Zobrazit data
Místo: Churáňov
Teplota: 9 °C (pocitová: 5.6 °C)
Vítr: 2 m/s z(e) 210°
Počasí: skoro zataženo
Dohlednost: 30 km
Zákl. oblačnosti: 5/8 9000 m
Vlhkost: 94%
Doksany - Litoměřice (Doksany) 16.07.2019 00:00 UTC Zobrazit data
Místo: Doksany - Litoměřice
Teplota: 11 °C (pocitová: 20 °C)
Vítr: 0 m/s z(e) 0°
Počasí: zataženo
Dohlednost: 6 km
Zákl. oblačnosti: 7/8 9300 m
Vlhkost: 100%
Dukovany (Dukovany) 16.07.2019 00:00 UTC Zobrazit data
Místo: Dukovany
Teplota: 12 °C (pocitová: 8.7 °C)
Vítr: 3 m/s z(e) 340°
Počasí: zataženo
Dohlednost: 20 km
Zákl. oblačnosti: 8/8 7800 m
Vlhkost: 88%
Holešov (Holesov) 16.07.2019 00:00 UTC Zobrazit data
Místo: Holešov
Teplota: 12 °C (pocitová: 10.4 °C)
Vítr: 1 m/s z(e) 110°
Počasí: oblačno
Dohlednost: 26 km
Zákl. oblačnosti: 4/8 9000 m
Vlhkost: 88%
Kadaň - Tušimice (Tusimice) 16.07.2019 00:00 UTC Zobrazit data
Místo: Kadaň - Tušimice
Teplota: 13 °C (pocitová: 10 °C)
Vítr: 3 m/s z(e) 290°
Počasí:
Dohlednost: 30 km
Zákl. oblačnosti: N/A
Vlhkost: 82%
Karlovy Vary (K.Vary) 16.07.2019 00:00 UTC Zobrazit data
Místo: Karlovy Vary
Teplota: 10 °C (pocitová: 5.3 °C)
Vítr: 4 m/s z(e) 300°
Počasí: slunečno
Dohlednost: 25 km
Zákl. oblačnosti: N/A
Vlhkost: 88%
Kocelovice (Kocelovice) 16.07.2019 00:00 UTC Zobrazit data
Místo: Kocelovice
Teplota: 12 °C (pocitová: 10.4 °C)
Vítr: 1 m/s z(e) 0°
Počasí: zataženo
Dohlednost: 17 km
Zákl. oblačnosti: 7/8 6900 m;8/8 9300 m
Vlhkost: 94%
Kopisty (Kopisty) 15.07.2019 21:00 UTC Zobrazit data
Místo: Kopisty
Teplota: 16 °C (pocitová: 15.3 °C)
Vítr: 1 m/s z(e) 300°
Počasí: skorojasno
Dohlednost: 30 km
Zákl. oblačnosti: 1/8 3000 m
Vlhkost: 72%
Kostelní Myslová (K.Myslova) 16.07.2019 00:00 UTC Zobrazit data
Místo: Kostelní Myslová
Teplota: 12 °C (pocitová: 9.5 °C)
Vítr: 2 m/s z(e) 0°
Počasí:
Dohlednost: 29 km
Zákl. oblačnosti: N/A
Vlhkost: 88%
Křešín - Kramolín (Kramolin) 16.07.2019 00:00 UTC Zobrazit data
Místo: Křešín - Kramolín
Teplota: 11 °C (pocitová: 8.2 °C)
Vítr: 2 m/s z(e) 290°
Počasí: skoro zataženo
Dohlednost: 13 km
Zákl. oblačnosti: 6/8 9300 m
Vlhkost: 94%
Kuchařovice - Znojmo (Kucharovic) 16.07.2019 00:00 UTC Zobrazit data
Místo: Kuchařovice - Znojmo
Teplota: 13 °C (pocitová: 10 °C)
Vítr: 3 m/s z(e) 340°
Počasí: oblačno
Dohlednost: 27 km
Zákl. oblačnosti: 3/8 7800 m
Vlhkost: 88%
Liberec (Liberec) 16.07.2019 00:00 UTC Zobrazit data
Místo: Liberec
Teplota: 12 °C (pocitová: 8.7 °C)
Vítr: 3 m/s z(e) 290°
Počasí: zataženo
Dohlednost: 15 km
Zákl. oblačnosti: 8/8 840 m
Vlhkost: 88%
Luká (Luka) 16.07.2019 00:00 UTC Zobrazit data
Místo: Luká
Teplota: 13 °C (pocitová: 10 °C)
Vítr: 3 m/s z(e) 290°
Počasí: skorojasno
Dohlednost: 23 km
Zákl. oblačnosti: 2/8 8700 m
Vlhkost: 82%
Lysá Hora (Lysa Hora) 16.07.2019 00:00 UTC Zobrazit data
Místo: Lysá Hora
Teplota: 9 °C (pocitová: 3.4 °C)
Vítr: 5 m/s z(e) 10°
Počasí: skoro zataženo
Dohlednost: 10 km
Zákl. oblačnosti: 6/8 1290 m
Vlhkost: 87%
Milešovka (Milesovka) 16.07.2019 00:00 UTC Zobrazit data
Místo: Milešovka
Teplota: 9 °C (pocitová: 2.2 °C)
Vítr: 8 m/s z(e) 350°
Počasí: skorojasno
Dohlednost: 20 km
Zákl. oblačnosti: 1/8 480 m
Vlhkost: 100%
Mošnov (Ostrava/Mo) 16.07.2019 00:00 UTC Zobrazit data
Místo: Mošnov
Teplota: 15 °C (pocitová: 13.3 °C)
Vítr: 2 m/s z(e) 0°
Počasí: oblačno
Dohlednost: 20 km
Zákl. oblačnosti: 4/8 1800 m
Vlhkost: 72%
Náměšť nad Oslavou (Namest n/O) 16.07.2019 00:00 UTC Zobrazit data
Místo: Náměšť nad Oslavou
Teplota: 14 °C (pocitová: 11.3 °C)
Vítr: 3 m/s z(e) 320°
Počasí: skorojasno
Dohlednost: 20 km
Zákl. oblačnosti: 2/8 7500 m
Vlhkost: 77%
Pardubice (Pardubice) 16.07.2019 00:00 UTC Zobrazit data
Místo: Pardubice
Teplota: 13 °C (pocitová: 10.8 °C)
Vítr: 2 m/s z(e) 270°
Počasí: slunečno
Dohlednost: 20 km
Zákl. oblačnosti: N/A
Vlhkost: 82%
Pec pod Sněžkou (Pec p.Snez) 16.07.2019 00:00 UTC Zobrazit data
Místo: Pec pod Sněžkou
Teplota: 6 °C (pocitová: 3.1 °C)
Vítr: 1 m/s z(e) 0°
Počasí: oblačno
Dohlednost: 35 km
Zákl. oblačnosti: 1/8 6300 m;3/8 7200 m
Vlhkost: 100%
Plzeň město - Mikulka (Plzen/Miku) 16.07.2019 00:00 UTC Zobrazit data
Místo: Plzeň město - Mikulka
Teplota: 13 °C (pocitová: 10.8 °C)
Vítr: 2 m/s z(e) 10°
Počasí:
Dohlednost: 26 km
Zákl. oblačnosti: N/A
Vlhkost: 88%
Polom (Polom) 16.07.2019 00:00 UTC Zobrazit data
Místo: Polom
Teplota: 10 °C (pocitová: 6.9 °C)
Vítr: 2 m/s z(e) 190°
Počasí: slunečno
Dohlednost: 20 km
Zákl. oblačnosti: N/A
Vlhkost: 94%
Praha - Karlov (Praha/Kar) 16.07.2019 00:00 UTC Zobrazit data
Místo: Praha - Karlov
Teplota: 15 °C (pocitová: 14.1 °C)
Vítr: 1 m/s z(e) 220°
Počasí: skorojasno
Dohlednost: 30 km
Zákl. oblačnosti: 2/8 9300 m
Vlhkost: 77%
Praha - Kbely (Praha/Kbe) 16.07.2019 00:00 UTC Zobrazit data
Místo: Praha - Kbely
Teplota: 14 °C (pocitová: 12.9 °C)
Vítr: 1 m/s z(e) 210°
Počasí: skorojasno
Dohlednost: 20 km
Zákl. oblačnosti: 1/8 6900 m
Vlhkost: 82%
Praha - Libuš (Praha/Lib) 16.07.2019 00:00 UTC Zobrazit data
Místo: Praha - Libuš
Teplota: 13 °C (pocitová: 11.7 °C)
Vítr: 1 m/s z(e) 0°
Počasí:
Dohlednost: 18 km
Zákl. oblačnosti: N/A
Vlhkost: 82%
Praha - Ruzyně (Praha/Ru) 16.07.2019 00:00 UTC Zobrazit data
Místo: Praha - Ruzyně
Teplota: 11 °C (pocitová: 7.3 °C)
Vítr: 3 m/s z(e) 230°
Počasí: skorojasno
Dohlednost: 15 km
Zákl. oblačnosti: 2/8 7800 m
Vlhkost: 88%
Přibyslav (Pribyslav) 16.07.2019 00:00 UTC Zobrazit data
Místo: Přibyslav
Teplota: 11 °C (pocitová: 8.2 °C)
Vítr: 2 m/s z(e) 320°
Počasí:
Dohlednost: 13 km
Zákl. oblačnosti: N/A
Vlhkost: 88%
Přimda (Primda) 16.07.2019 00:00 UTC Zobrazit data
Místo: Přimda
Teplota: 11 °C (pocitová: 8.2 °C)
Vítr: 2 m/s z(e) 10°
Počasí: skoro zataženo
Dohlednost: 23 km
Zákl. oblačnosti: 5/8 9300 m
Vlhkost: 88%
Šerák (Serak) 16.07.2019 00:00 UTC Zobrazit data
Místo: Šerák
Teplota: 9 °C (pocitová: 3.4 °C)
Vítr: 5 m/s z(e) 260°
Počasí: zataženo
Dohlednost: 5 km
Zákl. oblačnosti: 7/8 90 m
Vlhkost: 94%
Svratouch (Svratouch) 16.07.2019 00:00 UTC Zobrazit data
Místo: Svratouch
Teplota: 11 °C (pocitová: 7.3 °C)
Vítr: 3 m/s z(e) 330°
Počasí:
Dohlednost: 12 km
Zákl. oblačnosti: N/A
Vlhkost: 88%
Temelín (Temelin) 16.07.2019 00:00 UTC Zobrazit data
Místo: Temelín
Teplota: 13 °C (pocitová: 9.4 °C)
Vítr: 4 m/s z(e) 30°
Počasí:
Dohlednost: 28 km
Zákl. oblačnosti: N/A
Vlhkost: 88%
Ústí nad Labem - Kočkov (Usti n/L) 16.07.2019 00:00 UTC Zobrazit data
Místo: Ústí nad Labem - Kočkov
Teplota: 13 °C (pocitová: 10 °C)
Vítr: 3 m/s z(e) 350°
Počasí: zataženo
Dohlednost: 21 km
Zákl. oblačnosti: 6/8 540 m;7/8 6000 m
Vlhkost: 82%
Ústí nad Orlicí (Usti n/O) 16.07.2019 00:00 UTC Zobrazit data
Místo: Ústí nad Orlicí
Teplota: 11 °C (pocitová: 9.2 °C)
Vítr: 1 m/s z(e) 0°
Počasí: skorojasno
Dohlednost: 13 km
Zákl. oblačnosti: 2/8 7200 m
Vlhkost: 100%
Aalborg (EKYT) 15.07.2019 23:50 UTC Zobrazit METAR
EKYT 152350Z AUTO 21007KT 8000 FEW006/// BKN011/// BKN014/// 14/14 Q1011
Aarhus (EKAH) 09.07.2019 10:50 UTC Zobrazit METAR
EKAH 091050Z 29008KT 250V330 9999 FEW027 20/13 Q1014
Abu Dhabi (OMAA) 16.07.2019 00:00 UTC Zobrazit METAR
OMAA 160000Z 21007KT CAVOK 30/24 Q0994 NOSIG
Abuja (DNAA) 15.07.2019 12:00 UTC Zobrazit METAR
DNAA 151200Z 24005KT 200V280 9999 SCT012 29/21 Q1013 NOSIG
Accra (DGAA) 16.07.2019 00:00 UTC Zobrazit METAR
DGAA 160000Z 24009KT CAVOK 25/23 Q1013 NOSIG
Addis Abeba (HAAB) 16.07.2019 00:00 UTC Zobrazit METAR
HAAB 160000Z 03004KT 9999 SCT023 13/12 Q1026
Agana (PGUM) 15.07.2019 23:54 UTC Zobrazit METAR
PGUM 152354Z 29011KT 10SM SCT007 BKN015 BKN026 26/24 A2987 RMK AO2 SLP108 T02610239 10278 20250 51007
Ahe Island (NTHE) Zatím nenačteno  
Akureyri (BIAR) 16.07.2019 00:00 UTC Zobrazit METAR
BIAR 160000Z 00000KT 9999 -RA FEW008 BKN035 OVC044 14/12 Q1012 RMK WIND VADLAHEIDI 36004KT
Almaty (UAAA) Zatím nenačteno  
Amman (OJAM) 16.07.2019 00:00 UTC Zobrazit METAR
OJAM 160000Z 30010KT 6000 NSC 20/15 Q1011 NOSIG
Amsterdam (EHAM) 15.07.2019 23:55 UTC Zobrazit METAR
EHAM 152355Z 35003KT 290V030 9999 FEW019 BKN021 14/11 Q1020 NOSIG
Antananarivo (FMMI) 15.07.2019 23:54 UTC Zobrazit METAR
FMMI 152354Z 18005KT 4000 DZ SCT004 BKN017 12/12 Q1027 TEMPO 2500 -RADZ
1 2 3 ... 9 Další
Reklama

Počasí na Váš email

Emaily jsou bez reklamy a bez spamu



Odhlásit newsletter

Reklama


Lunární kalendář

  • 25.07.
  • 01.08.
  • 07.08.
  • 15.08.



Reklama


Reklama
Povinné ručení
Reklama



Reklama